Fort Knox, KY (40121)

3:16 PM EDT on March 26, 2015 (GMT -0400)
Radcliff City Hall | Change Station
CLOSE
Current Station
Personal Weather Station
Location: Radcliff, KY
Elevation: 741 ft
Nearby Weather Stations

Elev 741 ft 37.84 °N, 85.94 °W | Updated 27 seconds ago

Light Rain
Light Rain Mist
44.6 °F
Feels Like 45 °F
N
3.0
Wind Variable Wind from NNW
Gusts 4.0 mph

Today
High -- | Low -- °F
--% Chance of Precip.
Yesterday
High -- | Low -- °F
Precip. -- in
7:38 AM 8:01 PM
Waxing Crescent, 45% visible
Pressure 29.92 in
Visibility 2.0 miles
Clouds Mostly Cloudy 700 ft
Overcast 1300 ft
Windchill 45 °F
Dew Point 42 °F
Humidity 92%
Rainfall 0.00 in
Snow Depth Not available.
UV 2 out of 12
Pollen .30 out of 12
Air Quality Not available.
Flu Activity Not available.
METAR KFTK 261858Z 30005KT 2SM -RA BR BKN007 OVC013 07/06 A2991 RMK AO2A CIG 006V010 SLP132 P0000 T00700057

More Conditions Fewer Conditions

Pressure 29.92 in
Visibility 2.0 miles
Clouds Mostly Cloudy 700 ft
Overcast 1300 ft
Windchill 45 °F
Dew Point 42 °F
Humidity 92%
Rainfall 0.00 in
Snow Depth Not available.
UV 2 out of 12
Pollen .30 out of 12
Air Quality Not available.
Flu Activity Not available.
METAR KFTK 261858Z 30005KT 2SM -RA BR BKN007 OVC013 07/06 A2991 RMK AO2A CIG 006V010 SLP132 P0000 T00700057

More Conditions Fewer Conditions

10-Day Weather Forecast

Almanac

Astronomy

Mar. 26, 2015 Rise Set
Actual Time
Civil Twilight
Nautical Twilight
Astronomical Twilight
Moon
Length of Visible Light
Length of Day
Tomorrow will be .
, % of the Moon is Illuminated

Today's Extremes

State Highs State Lows

Community

WunderPhotos

Upload Photos

1,808,606 photos uploaded!

WunderBlogs® & News

Nearby

Air Quality

  Air Quality AQ Index Pollutant
Not available.

Snow Depth

Station Depth Elevation

Earthquake Activity

City Distance Mag. Time & Date
Minimum magnitude displayed is 2.5.

Coastal Water Temperatures

Place Temperature

Stations

Nearby Weather Stations

Station Location Temp. Windchill Dew Point Humidity Wind Precip. Elev Updated Type